首页
METAR-TAF:

METAR-TAF

机场 :

石油平台

Ekofisk, 挪威

纬度: 56-33N, 经度: 003-15E, 海拔: 3米

当前天气观测

该预报发布于15分钟前的09:50 UTC
风速19节,风向
温度 14°C
湿度 88%
气压 1019 hPa
能见度10公里或以上
多云层高于4500英尺

METAR: ENLE 130950Z 19019KT 9999 BKN045 14/12 Q1019 W14/S4

时间: 12:05 (10:05 UTC)

预报

该预报发布于2小时和5分钟前的08:00 UTC
预报有效从13日的 09点(UTC)到 13日的 18点(UTC)
风速20节,风向西南
能见度10公里或以上
少量云层高于1500英尺
散云层高于3000英尺
几率 30% :
短暂存在
从 13日的 09点(UTC)到 13日的 18点(UTC)
多云层高于1400英尺
散云层高于2000英尺, 积雨云.
阵雨

TAF: ENLE 130800Z 1309/1318 22020KT 9999 FEW015 SCT030 PROB30 TEMPO 1309/1318 SHRA BKN014 SCT020CB

超过4000个机场的气象观测和天气预报(METAR&TAF报告)。

可查询的气象台以黄色和红色小点在地图上表示。

将鼠标移到小点上方,可查看气象台名称。

然后点击查看天气观测和预报。

如需切换地图:点击带黑十字的绿色按钮放大地图;点击带横线的绿色按钮缩小地图;或者点击绿色箭头查看邻近地区的地图。


METAR-TAF: